createdAt,value
2018-11-28T00:00:59.324Z,1.19
2018-11-28T00:02:02.461Z,1.18
2018-11-28T00:03:05.530Z,1.21
2018-11-28T00:04:08.536Z,1.20
2018-11-28T00:05:13.700Z,1.21
2018-11-28T00:06:17.429Z,1.20
2018-11-28T00:07:21.248Z,1.21
2018-11-28T00:08:24.387Z,1.22
2018-11-28T00:09:27.934Z,1.23
2018-11-28T00:10:31.077Z,1.23
2018-11-28T00:11:34.147Z,1.25
2018-11-28T00:12:39.170Z,1.25
2018-11-28T00:13:44.400Z,1.24
2018-11-28T00:14:47.377Z,1.25
2018-11-28T00:15:50.738Z,1.22
2018-11-28T00:16:54.226Z,1.25
2018-11-28T00:17:57.294Z,1.28
2018-11-28T00:19:00.770Z,1.28
2018-11-28T00:20:04.125Z,1.26
2018-11-28T00:21:07.180Z,1.25
2018-11-28T00:22:10.237Z,1.24
2018-11-28T00:23:13.423Z,1.24
2018-11-28T00:24:17.273Z,1.25
2018-11-28T00:25:20.806Z,1.26
2018-11-28T00:26:24.053Z,1.25
2018-11-28T00:27:26.952Z,1.29
2018-11-28T00:28:30.625Z,1.30
2018-11-28T00:29:34.844Z,1.29
2018-11-28T00:30:38.030Z,1.31
2018-11-28T00:31:41.902Z,1.31
2018-11-28T00:32:45.111Z,1.32
2018-11-28T00:33:48.063Z,1.34
2018-11-28T00:34:54.836Z,1.36
2018-11-28T00:35:57.955Z,1.33
2018-11-28T00:37:01.192Z,1.34
2018-11-28T00:38:04.090Z,1.34
2018-11-28T00:39:07.295Z,1.31
2018-11-28T00:40:10.175Z,1.33
2018-11-28T00:41:13.788Z,1.30
2018-11-28T00:42:16.778Z,1.30
2018-11-28T00:43:19.642Z,1.30
2018-11-28T00:44:23.515Z,1.28
2018-11-28T00:45:31.075Z,1.25
2018-11-28T00:46:34.145Z,1.27
2018-11-28T00:47:37.729Z,1.25
2018-11-28T00:48:42.354Z,1.21
2018-11-28T00:49:47.000Z,1.21
2018-11-28T00:50:50.111Z,1.20
2018-11-28T00:51:53.303Z,1.21
2018-11-28T00:52:56.354Z,1.19
2018-11-28T00:53:59.953Z,1.19
2018-11-28T00:55:09.005Z,1.19
2018-11-28T00:56:12.387Z,1.17
2018-11-28T00:57:15.549Z,1.16
2018-11-28T00:58:19.785Z,1.12
2018-11-28T00:59:23.045Z,1.11
2018-11-28T01:00:28.456Z,1.09
2018-11-28T01:01:31.572Z,1.11
2018-11-28T01:02:34.463Z,1.11
2018-11-28T01:03:38.729Z,1.11
2018-11-28T01:04:42.167Z,1.11
2018-11-28T01:05:45.439Z,1.09
2018-11-28T01:06:48.452Z,1.13
2018-11-28T01:07:51.377Z,1.13
2018-11-28T01:08:54.325Z,1.09
2018-11-28T01:09:57.574Z,1.07
2018-11-28T01:11:01.181Z,1.07
2018-11-28T01:12:04.090Z,1.04
2018-11-28T01:13:07.413Z,1.02
2018-11-28T01:14:11.688Z,1.00
2018-11-28T01:15:15.220Z,1.01
2018-11-28T01:16:18.725Z,1.01
2018-11-28T01:17:22.643Z,1.01
2018-11-28T01:18:26.387Z,0.98
2018-11-28T01:19:30.511Z,0.98
2018-11-28T01:20:36.028Z,1.00
2018-11-28T01:21:39.441Z,1.01
2018-11-28T01:22:42.778Z,1.01
2018-11-28T01:23:46.231Z,1.03
2018-11-28T01:24:49.555Z,1.00
2018-11-28T01:25:52.882Z,1.02
2018-11-28T01:26:56.839Z,0.99
2018-11-28T01:27:59.954Z,0.98
2018-11-28T01:29:03.731Z,0.99
2018-11-28T01:30:08.981Z,1.00
2018-11-28T01:31:14.394Z,0.99
2018-11-28T01:32:20.246Z,1.00
2018-11-28T01:33:27.536Z,1.00
2018-11-28T01:34:33.633Z,1.01
2018-11-28T01:35:37.420Z,1.07
2018-11-28T01:36:42.577Z,1.04
2018-11-28T01:37:46.531Z,1.03
2018-11-28T01:38:49.556Z,1.01
2018-11-28T01:39:52.957Z,1.01
2018-11-28T01:40:56.262Z,1.00
2018-11-28T01:41:59.934Z,1.00
2018-11-28T01:43:05.097Z,0.99
2018-11-28T01:44:10.299Z,1.03
2018-11-28T01:45:13.796Z,1.05
2018-11-28T01:46:17.028Z,1.03
2018-11-28T01:47:20.244Z,1.03
2018-11-28T01:48:23.807Z,1.02
2018-11-28T01:49:28.533Z,1.03
2018-11-28T01:50:31.913Z,1.02
2018-11-28T01:51:35.529Z,1.01
2018-11-28T01:52:38.827Z,1.03
2018-11-28T01:53:41.713Z,1.03
2018-11-28T01:54:44.935Z,1.03
2018-11-28T01:55:49.969Z,1.03
2018-11-28T01:56:53.858Z,1.02
2018-11-28T01:57:56.720Z,1.04
2018-11-28T01:58:59.624Z,1.03
2018-11-28T02:00:02.792Z,1.05
2018-11-28T02:01:08.936Z,1.04
2018-11-28T02:02:14.969Z,1.04
2018-11-28T02:03:18.199Z,1.02
2018-11-28T02:04:22.121Z,1.06
2018-11-28T02:05:25.280Z,1.04
2018-11-28T02:06:28.842Z,1.02
2018-11-28T02:07:31.901Z,1.02
2018-11-28T02:08:36.006Z,1.02
2018-11-28T02:09:41.348Z,1.01
2018-11-28T02:10:45.946Z,1.00
2018-11-28T02:11:49.289Z,1.02
2018-11-28T02:12:52.665Z,1.00
2018-11-28T02:13:55.717Z,0.99
2018-11-28T02:14:59.939Z,1.00
2018-11-28T02:16:03.749Z,1.01
2018-11-28T02:17:07.919Z,0.97
2018-11-28T02:18:10.842Z,0.98
2018-11-28T02:19:14.825Z,0.99
2018-11-28T02:20:18.661Z,0.97
2018-11-28T02:21:22.064Z,0.98
2018-11-28T02:22:26.410Z,0.97
2018-11-28T02:23:30.584Z,0.98
2018-11-28T02:24:33.474Z,0.99
2018-11-28T02:25:36.450Z,0.98
2018-11-28T02:26:39.523Z,0.93
2018-11-28T02:27:43.663Z,0.93
2018-11-28T02:28:47.759Z,0.92
2018-11-28T02:29:52.294Z,0.91
2018-11-28T02:30:55.273Z,0.92
2018-11-28T02:31:58.838Z,0.95
2018-11-28T02:33:01.832Z,0.95
2018-11-28T02:34:05.497Z,0.95
2018-11-28T02:35:09.439Z,0.95
2018-11-28T02:36:12.371Z,0.96
2018-11-28T02:37:15.382Z,0.97
2018-11-28T02:38:18.365Z,0.98
2018-11-28T02:39:21.817Z,0.98
2018-11-28T02:40:25.406Z,0.96
2018-11-28T02:41:28.422Z,0.94
2018-11-28T02:42:31.271Z,0.98
2018-11-28T02:43:34.307Z,1.01
2018-11-28T02:44:38.118Z,1.04
2018-11-28T02:45:42.194Z,1.03
2018-11-28T02:46:45.958Z,1.02
2018-11-28T02:47:48.861Z,0.97
2018-11-28T02:48:51.710Z,1.00
2018-11-28T02:49:54.880Z,0.97
2018-11-28T02:50:58.059Z,0.95
2018-11-28T02:52:01.090Z,0.97
2018-11-28T02:53:04.429Z,0.94
2018-11-28T02:54:07.472Z,0.98
2018-11-28T02:55:11.479Z,0.98
2018-11-28T02:56:14.955Z,0.93
2018-11-28T02:57:18.053Z,0.93
2018-11-28T02:58:21.684Z,0.93
2018-11-28T02:59:27.630Z,0.95
2018-11-28T03:00:30.902Z,0.97
2018-11-28T03:01:34.487Z,0.97
2018-11-28T03:02:38.452Z,0.96
2018-11-28T03:03:41.786Z,1.02
2018-11-28T03:04:44.940Z,1.01
2018-11-28T03:05:48.502Z,1.02
2018-11-28T03:06:51.672Z,1.04
2018-11-28T03:07:55.053Z,1.06
2018-11-28T03:08:58.825Z,1.06
2018-11-28T03:10:01.849Z,1.07
2018-11-28T03:11:04.823Z,1.07
2018-11-28T03:12:08.972Z,1.06
2018-11-28T03:13:13.287Z,1.07
2018-11-28T03:14:16.860Z,1.04
2018-11-28T03:15:24.849Z,1.02
2018-11-28T03:16:28.742Z,0.99
2018-11-28T03:17:33.206Z,0.95
2018-11-28T03:18:36.984Z,0.91
2018-11-28T03:19:40.341Z,0.88
2018-11-28T03:20:43.328Z,0.89
2018-11-28T03:21:47.658Z,0.89
2018-11-28T03:22:52.353Z,0.91
2018-11-28T03:23:57.102Z,0.90
2018-11-28T03:25:00.738Z,0.93
2018-11-28T03:26:03.841Z,0.91
2018-11-28T03:27:06.746Z,0.91
2018-11-28T03:28:09.649Z,0.90
2018-11-28T03:29:13.101Z,0.90
2018-11-28T03:30:16.102Z,0.90
2018-11-28T03:31:19.308Z,0.93
2018-11-28T03:32:22.736Z,0.95
2018-11-28T03:33:25.805Z,0.91
2018-11-28T03:34:29.608Z,0.92
2018-11-28T03:35:32.504Z,0.93
2018-11-28T03:36:35.457Z,0.94
2018-11-28T03:37:38.810Z,0.92
2018-11-28T03:38:42.230Z,0.93
2018-11-28T03:39:46.454Z,0.94
2018-11-28T03:40:49.713Z,0.92
2018-11-28T03:41:52.629Z,0.91
2018-11-28T03:42:55.538Z,0.92
2018-11-28T03:43:59.697Z,0.95
2018-11-28T03:45:02.811Z,0.99
2018-11-28T03:46:05.711Z,0.96
2018-11-28T03:47:08.679Z,0.94
2018-11-28T03:48:11.920Z,0.96
2018-11-28T03:49:16.307Z,0.95
2018-11-28T03:50:20.681Z,0.98
2018-11-28T03:51:25.245Z,0.98
2018-11-28T03:52:29.105Z,0.96
2018-11-28T03:53:32.481Z,0.96
2018-11-28T03:54:35.427Z,0.94
2018-11-28T03:55:38.300Z,0.94
2018-11-28T03:56:43.074Z,0.89
2018-11-28T03:57:46.601Z,0.88
2018-11-28T03:58:49.654Z,0.92
2018-11-28T03:59:52.781Z,0.95
2018-11-28T04:00:56.090Z,0.95
2018-11-28T04:02:00.449Z,0.93
2018-11-28T04:03:05.109Z,0.91
2018-11-28T04:04:08.475Z,0.91
2018-11-28T04:05:11.903Z,0.94
2018-11-28T04:06:15.107Z,0.98
2018-11-28T04:07:18.142Z,0.98
2018-11-28T04:08:22.267Z,0.97
2018-11-28T04:09:26.694Z,0.97
2018-11-28T04:10:31.283Z,0.99
2018-11-28T04:11:34.481Z,0.98
2018-11-28T04:12:37.679Z,0.95
2018-11-28T04:13:40.524Z,0.96
2018-11-28T04:14:44.232Z,0.96
2018-11-28T04:15:48.306Z,0.95
2018-11-28T04:16:51.483Z,0.97
2018-11-28T04:17:54.912Z,0.93
2018-11-28T04:18:57.951Z,0.89
2018-11-28T04:20:01.676Z,0.88
2018-11-28T04:21:07.778Z,0.87
2018-11-28T04:22:12.021Z,0.86
2018-11-28T04:23:15.306Z,0.86
2018-11-28T04:24:18.491Z,0.87
2018-11-28T04:25:21.387Z,0.87
2018-11-28T04:26:24.295Z,0.87
2018-11-28T04:27:28.037Z,0.87
2018-11-28T04:28:31.220Z,0.87
2018-11-28T04:29:34.230Z,0.87
2018-11-28T04:30:37.111Z,0.89
2018-11-28T04:31:40.399Z,0.88
2018-11-28T04:32:44.984Z,0.89
2018-11-28T04:33:48.457Z,0.89
2018-11-28T04:34:51.783Z,0.88
2018-11-28T04:35:54.696Z,0.93
2018-11-28T04:36:57.931Z,0.93
2018-11-28T04:38:01.626Z,0.89
2018-11-28T04:39:07.278Z,0.92
2018-11-28T04:40:13.668Z,0.91
2018-11-28T04:41:18.236Z,0.91
2018-11-28T04:42:22.513Z,0.95
2018-11-28T04:43:25.446Z,0.96
2018-11-28T04:44:28.503Z,0.98
2018-11-28T04:45:32.377Z,0.93
2018-11-28T04:46:36.602Z,0.94
2018-11-28T04:47:40.262Z,0.96
2018-11-28T04:48:43.142Z,0.98
2018-11-28T04:49:46.043Z,0.96
2018-11-28T04:50:49.215Z,1.00
2018-11-28T04:51:52.994Z,0.94
2018-11-28T04:52:56.695Z,0.97
2018-11-28T04:53:59.595Z,0.99
2018-11-28T04:55:02.929Z,0.98
2018-11-28T04:56:07.070Z,0.98
2018-11-28T04:57:11.630Z,1.00
2018-11-28T04:58:15.892Z,0.98
2018-11-28T04:59:21.406Z,0.95
2018-11-28T05:00:24.815Z,0.97
2018-11-28T05:01:28.595Z,0.96
2018-11-28T05:02:31.652Z,0.95
2018-11-28T05:03:34.545Z,0.95
2018-11-28T05:04:38.759Z,0.92
2018-11-28T05:05:43.374Z,0.93
2018-11-28T05:06:46.447Z,0.90
2018-11-28T05:07:50.560Z,0.91
2018-11-28T05:08:53.495Z,0.96
2018-11-28T05:09:57.380Z,0.99
2018-11-28T05:11:01.564Z,0.97
2018-11-28T05:12:06.909Z,0.95
2018-11-28T05:13:10.053Z,0.92
2018-11-28T05:14:14.663Z,0.95
2018-11-28T05:15:18.921Z,0.93
2018-11-28T05:16:22.272Z,0.92
2018-11-28T05:17:25.469Z,0.90
2018-11-28T05:18:29.403Z,0.90
2018-11-28T05:19:32.777Z,0.94
2018-11-28T05:20:36.322Z,0.92
2018-11-28T05:21:39.165Z,0.97
2018-11-28T05:22:42.021Z,0.97
2018-11-28T05:23:45.391Z,0.95
2018-11-28T05:24:49.820Z,0.94
2018-11-28T05:25:54.994Z,0.97
2018-11-28T05:26:59.229Z,0.97
2018-11-28T05:28:02.174Z,0.98
2018-11-28T05:29:05.176Z,0.99
2018-11-28T05:30:08.218Z,0.95
2018-11-28T05:31:12.244Z,0.92
2018-11-28T05:32:18.380Z,0.92
2018-11-28T05:33:22.815Z,0.94
2018-11-28T05:34:26.631Z,0.95
2018-11-28T05:35:29.515Z,0.98
2018-11-28T05:36:32.408Z,1.00
2018-11-28T05:37:35.596Z,1.00
2018-11-28T05:38:39.716Z,0.99
2018-11-28T05:39:43.534Z,0.97
2018-11-28T05:40:46.439Z,0.97
2018-11-28T05:41:49.388Z,0.95
2018-11-28T05:42:53.478Z,0.95
2018-11-28T05:43:58.143Z,0.91
2018-11-28T05:45:01.866Z,0.93
2018-11-28T05:46:04.757Z,0.95
2018-11-28T05:47:07.751Z,0.97
2018-11-28T05:48:10.792Z,0.93
2018-11-28T05:49:15.220Z,0.94
2018-11-28T05:50:18.819Z,0.97
2018-11-28T05:51:21.806Z,0.97
2018-11-28T05:52:24.947Z,0.93
2018-11-28T05:53:27.950Z,0.92
2018-11-28T05:54:31.864Z,0.90
2018-11-28T05:55:36.640Z,0.93
2018-11-28T05:56:41.709Z,0.96
2018-11-28T05:57:49.036Z,0.96
2018-11-28T05:58:52.597Z,0.91
2018-11-28T05:59:55.629Z,0.96
2018-11-28T06:00:58.913Z,0.99
2018-11-28T06:02:02.457Z,0.97
2018-11-28T06:03:07.026Z,0.96
2018-11-28T06:04:10.150Z,0.95
2018-11-28T06:05:14.372Z,0.95
2018-11-28T06:06:17.353Z,0.96
2018-11-28T06:07:20.297Z,0.95
2018-11-28T06:08:23.194Z,0.96
2018-11-28T06:09:30.659Z,0.98
2018-11-28T06:10:33.717Z,0.95
2018-11-28T06:11:37.929Z,0.93
2018-11-28T06:12:45.373Z,0.94
2018-11-28T06:13:49.224Z,0.97
2018-11-28T06:14:52.766Z,0.98
2018-11-28T06:15:56.821Z,0.97
2018-11-28T06:17:00.131Z,0.99
2018-11-28T06:18:04.006Z,0.99
2018-11-28T06:19:11.195Z,0.99
2018-11-28T06:20:14.384Z,0.98
2018-11-28T06:21:18.344Z,1.03
2018-11-28T06:22:29.488Z,1.03
2018-11-28T06:23:33.184Z,1.04
2018-11-28T06:24:36.949Z,1.01
2018-11-28T06:25:40.505Z,1.04
2018-11-28T06:26:44.398Z,1.02
2018-11-28T06:27:47.367Z,1.00
2018-11-28T06:28:51.299Z,0.99
2018-11-28T06:29:54.693Z,1.00
2018-11-28T06:43:55.618Z,1.07
2018-11-28T06:45:03.331Z,1.13
2018-11-28T06:46:07.733Z,1.11
2018-11-28T06:47:10.651Z,1.12
2018-11-28T06:48:14.243Z,1.14
2018-11-28T06:49:17.822Z,1.16
2018-11-28T06:50:20.745Z,1.14
2018-11-28T06:51:26.551Z,1.15
2018-11-28T06:52:30.074Z,1.14
2018-11-28T06:53:33.190Z,1.14
2018-11-28T06:54:36.150Z,1.18
2018-11-28T06:55:39.424Z,1.20
2018-11-28T06:56:44.666Z,1.20
2018-11-28T06:57:47.866Z,1.22
2018-11-28T06:58:51.450Z,1.20
2018-11-28T06:59:55.563Z,1.22
2018-11-28T07:00:58.612Z,1.21
2018-11-28T07:02:02.100Z,1.22
2018-11-28T07:03:05.080Z,1.20
2018-11-28T07:04:08.726Z,1.21
2018-11-28T07:05:13.926Z,1.20
2018-11-28T07:06:17.182Z,1.22
2018-11-28T07:07:21.176Z,1.23
2018-11-28T07:08:24.741Z,1.22
2018-11-28T07:09:27.708Z,1.19
2018-11-28T07:10:31.468Z,1.19
2018-11-28T07:11:36.548Z,1.20
2018-11-28T07:12:41.044Z,1.20
2018-11-28T07:13:44.280Z,1.21
2018-11-28T07:14:47.793Z,1.23
2018-11-28T07:15:50.846Z,1.22
2018-11-28T07:16:55.230Z,1.24
2018-11-28T07:17:59.980Z,1.23
2018-11-28T07:19:04.251Z,1.22
2018-11-28T07:20:07.949Z,1.22
2018-11-28T07:21:11.625Z,1.22
2018-11-28T07:22:14.764Z,1.25
2018-11-28T07:23:17.709Z,1.22
2018-11-28T07:24:21.425Z,1.21
2018-11-28T07:25:25.214Z,1.21
2018-11-28T07:26:28.969Z,1.21
2018-11-28T07:27:32.364Z,1.23
2018-11-28T07:28:35.342Z,1.24
2018-11-28T07:29:38.965Z,1.29
2018-11-28T07:30:45.072Z,1.28
2018-11-28T07:31:48.811Z,1.26
2018-11-28T07:32:53.314Z,1.26
2018-11-28T07:33:57.488Z,1.27
2018-11-28T07:35:00.475Z,1.28
2018-11-28T07:36:03.520Z,1.29
2018-11-28T07:37:06.953Z,1.29
2018-11-28T07:38:11.360Z,1.31
2018-11-28T07:39:15.854Z,1.31
2018-11-28T07:40:20.330Z,1.31
2018-11-28T07:41:24.117Z,1.31
2018-11-28T07:42:27.305Z,1.29
2018-11-28T07:43:30.458Z,1.29
2018-11-28T07:44:33.650Z,1.31
2018-11-28T07:45:38.705Z,1.30
2018-11-28T07:46:43.787Z,1.30
2018-11-28T07:47:47.887Z,1.29
2018-11-28T07:48:51.170Z,1.31
2018-11-28T07:49:54.812Z,1.31
2018-11-28T07:50:57.977Z,1.34
2018-11-28T07:52:02.048Z,1.34
2018-11-28T07:53:05.689Z,1.35
2018-11-28T07:54:10.293Z,1.35
2018-11-28T07:55:14.027Z,1.34
2018-11-28T07:56:17.286Z,1.38
2018-11-28T07:57:21.338Z,1.38
2018-11-28T07:58:24.502Z,1.38
2018-11-28T07:59:29.658Z,1.37
2018-11-28T08:00:36.002Z,1.42
2018-11-28T08:01:40.547Z,1.49
2018-11-28T08:02:44.230Z,1.50
2018-11-28T08:03:47.163Z,1.46
2018-11-28T08:04:50.038Z,1.46
2018-11-28T08:05:53.629Z,1.47
2018-11-28T08:06:56.802Z,1.47
2018-11-28T08:07:59.912Z,1.44
2018-11-28T08:09:04.171Z,1.42
2018-11-28T08:10:07.683Z,1.48
2018-11-28T08:11:10.878Z,1.46
2018-11-28T08:12:14.799Z,1.51
2018-11-28T08:13:17.879Z,1.56
2018-11-28T08:14:20.902Z,1.50
2018-11-28T08:15:23.884Z,1.51
2018-11-28T08:16:26.774Z,1.53
2018-11-28T08:17:30.619Z,1.50
2018-11-28T08:18:34.186Z,1.48
2018-11-28T08:19:37.771Z,1.48
2018-11-28T08:20:41.304Z,1.46
2018-11-28T08:21:46.467Z,1.44
2018-11-28T08:22:52.440Z,1.47
2018-11-28T08:23:56.365Z,1.51
2018-11-28T08:24:59.958Z,1.52
2018-11-28T08:26:02.929Z,1.57
2018-11-28T08:27:05.795Z,1.54
2018-11-28T08:28:08.921Z,1.56
2018-11-28T08:29:12.106Z,1.53
2018-11-28T08:30:15.388Z,1.55
2018-11-28T08:31:20.061Z,1.62
2018-11-28T08:32:25.575Z,1.65
2018-11-28T08:33:31.473Z,1.61
2018-11-28T08:34:34.822Z,1.68
2018-11-28T08:35:37.919Z,1.67
2018-11-28T08:36:41.819Z,1.69
2018-11-28T08:37:45.699Z,1.64
2018-11-28T08:38:49.109Z,1.64
2018-11-28T08:39:52.049Z,1.70
2018-11-28T08:40:55.265Z,1.79
2018-11-28T08:41:59.346Z,1.80
2018-11-28T08:43:02.416Z,1.82
2018-11-28T08:44:05.806Z,1.78
2018-11-28T08:45:09.058Z,1.78
2018-11-28T08:46:12.232Z,1.74
2018-11-28T08:47:15.688Z,1.74
2018-11-28T08:48:20.845Z,1.74
2018-11-28T08:49:24.945Z,1.74
2018-11-28T08:50:28.472Z,1.83
2018-11-28T08:51:31.557Z,1.80
2018-11-28T08:52:34.550Z,1.82
2018-11-28T08:53:37.741Z,1.83
2018-11-28T08:54:40.804Z,1.87
2018-11-28T08:55:43.688Z,1.91
2018-11-28T08:56:47.023Z,1.94
2018-11-28T08:57:51.251Z,1.90
2018-11-28T08:58:54.246Z,1.98
2018-11-28T08:59:57.127Z,1.99
2018-11-28T09:01:00.001Z,2.06
2018-11-28T09:03:05.079Z,1.99
2018-11-28T09:04:09.611Z,2.02
2018-11-28T09:05:12.543Z,2.10
2018-11-28T09:06:15.489Z,2.10
2018-11-28T09:07:18.414Z,2.08
2018-11-28T09:08:23.010Z,2.14
2018-11-28T09:09:25.913Z,2.13
2018-11-28T09:10:28.802Z,2.08
2018-11-28T09:11:31.712Z,2.04
2018-11-28T09:12:34.629Z,2.07
2018-11-28T09:13:38.441Z,2.12
2018-11-28T09:14:42.468Z,2.05
2018-11-28T09:15:45.353Z,2.18
2018-11-28T09:16:48.379Z,2.15
2018-11-28T09:17:51.324Z,2.30
2018-11-28T09:19:00.582Z,2.31
2018-11-28T09:20:03.491Z,2.32
2018-11-28T09:21:07.612Z,2.46
2018-11-28T09:22:10.593Z,2.44
2018-11-28T09:23:14.433Z,2.38
2018-11-28T09:24:17.338Z,2.24
2018-11-28T09:25:23.195Z,2.25
2018-11-28T09:26:26.872Z,2.44
2018-11-28T09:27:30.129Z,2.65
2018-11-28T09:28:34.602Z,2.63
2018-11-28T09:29:38.275Z,2.58
2018-11-28T09:30:41.693Z,2.44
2018-11-28T09:31:45.563Z,2.30
2018-11-28T09:32:49.960Z,2.29
2018-11-28T09:33:53.448Z,2.32
2018-11-28T09:34:58.852Z,2.51
2018-11-28T09:36:01.764Z,2.46
2018-11-28T09:37:04.684Z,2.41
2018-11-28T09:38:07.563Z,2.50
2018-11-28T09:39:11.078Z,2.73
2018-11-28T09:40:14.466Z,2.80
2018-11-28T09:41:18.259Z,2.83
2018-11-28T09:42:21.720Z,2.78
2018-11-28T09:43:24.667Z,2.83
2018-11-28T09:44:27.561Z,2.64
2018-11-28T09:45:30.642Z,2.52
2018-11-28T09:46:35.024Z,2.59
2018-11-28T09:47:38.216Z,2.47
2018-11-28T09:48:41.219Z,2.56
2018-11-28T09:49:44.134Z,2.60
2018-11-28T09:50:47.032Z,2.68
2018-11-28T09:51:49.922Z,2.58
2018-11-28T09:52:52.861Z,2.69
2018-11-28T09:53:56.088Z,2.63
2018-11-28T09:54:58.997Z,2.47
2018-11-28T09:56:02.064Z,2.56
2018-11-28T09:57:05.978Z,2.56
2018-11-28T09:58:10.498Z,2.38
2018-11-28T09:59:14.216Z,2.33
2018-11-28T10:00:17.136Z,2.48
2018-11-28T10:01:20.675Z,2.52
2018-11-28T10:02:23.544Z,2.39
2018-11-28T10:03:26.421Z,2.42
2018-11-28T10:04:29.327Z,2.32
2018-11-28T10:05:37.428Z,2.43
2018-11-28T10:06:40.556Z,2.33
2018-11-28T10:07:44.935Z,2.31
2018-11-28T10:08:48.344Z,2.28
2018-11-28T10:09:52.212Z,2.26
2018-11-28T10:10:55.531Z,2.30
2018-11-28T10:11:58.878Z,2.28
2018-11-28T10:13:01.840Z,2.31
2018-11-28T10:14:04.908Z,2.28
2018-11-28T10:15:09.054Z,2.36
2018-11-28T10:16:12.003Z,2.43
2018-11-28T10:17:15.155Z,2.40
2018-11-28T10:18:18.838Z,2.43
2018-11-28T10:19:21.714Z,2.45
2018-11-28T10:20:24.936Z,2.50
2018-11-28T10:21:27.984Z,2.50
2018-11-28T10:22:31.372Z,2.53
2018-11-28T10:23:35.952Z,2.51
2018-11-28T10:24:39.666Z,2.46
2018-11-28T10:25:42.603Z,2.36
2018-11-28T10:26:46.083Z,2.44
2018-11-28T10:27:49.088Z,2.43
2018-11-28T10:28:52.091Z,2.41
2018-11-28T10:29:55.212Z,2.42
2018-11-28T10:30:58.672Z,2.45
2018-11-28T10:32:01.831Z,2.56
2018-11-28T10:33:05.605Z,2.51
2018-11-28T10:34:09.613Z,2.52
2018-11-28T10:35:13.492Z,2.54
2018-11-28T10:36:16.857Z,2.49
2018-11-28T10:37:22.741Z,2.51
2018-11-28T10:38:26.600Z,2.41
2018-11-28T10:39:29.791Z,2.34
2018-11-28T10:40:32.845Z,2.45
2018-11-28T10:41:37.750Z,2.43
2018-11-28T10:42:42.609Z,2.37
2018-11-28T10:43:47.269Z,2.40
2018-11-28T10:44:50.561Z,2.45
2018-11-28T10:45:53.760Z,2.47
2018-11-28T10:46:57.080Z,2.40
2018-11-28T10:48:00.037Z,2.42
2018-11-28T10:49:03.290Z,2.43
2018-11-28T10:50:07.143Z,2.50
2018-11-28T10:51:12.086Z,2.49
2018-11-28T10:52:15.549Z,2.60
2018-11-28T10:53:19.521Z,2.62
2018-11-28T10:54:22.839Z,2.63
2018-11-28T10:55:26.350Z,2.71
2018-11-28T10:56:29.921Z,2.88
2018-11-28T10:57:33.438Z,2.92
2018-11-28T10:58:36.619Z,2.97
2018-11-28T10:59:39.997Z,3.02
2018-11-28T11:00:47.697Z,3.07
2018-11-28T11:01:53.182Z,2.92
2018-11-28T11:03:02.527Z,3.15
2018-11-28T11:04:11.443Z,3.28
2018-11-28T11:05:20.318Z,3.49
2018-11-28T11:06:28.346Z,3.55
2018-11-28T11:07:37.532Z,3.54
2018-11-28T11:08:45.322Z,3.72
2018-11-28T11:09:53.704Z,3.72
2018-11-28T11:11:01.705Z,3.39
2018-11-28T11:12:12.340Z,3.56
2018-11-28T11:14:40.035Z,3.51
2018-11-28T11:15:49.123Z,3.27
2018-11-28T11:18:02.229Z,3.35
2018-11-28T11:19:04.800Z,3.30
2018-11-28T11:20:08.387Z,3.31
2018-11-28T11:21:11.559Z,3.29
2018-11-28T11:22:15.773Z,3.43
2018-11-28T11:23:19.052Z,3.42
2018-11-28T11:24:22.335Z,3.44
2018-11-28T11:25:28.251Z,3.47
2018-11-28T11:26:40.980Z,3.52
2018-11-28T11:27:45.146Z,3.68
2018-11-28T11:28:48.897Z,3.26
2018-11-28T11:29:52.132Z,3.39
2018-11-28T11:42:45.544Z,3.40
2018-11-28T11:43:48.656Z,3.57
2018-11-28T11:44:51.606Z,3.46
2018-11-28T11:45:54.901Z,3.32
2018-11-28T11:46:59.475Z,3.37
2018-11-28T11:48:03.203Z,3.38
2018-11-28T11:49:06.732Z,3.40
2018-11-28T11:50:11.157Z,3.33
2018-11-28T11:51:15.127Z,3.39
2018-11-28T11:52:18.393Z,3.47
2018-11-28T11:53:22.533Z,3.51
2018-11-28T11:54:26.169Z,3.41
2018-11-28T11:55:34.121Z,3.53
2018-11-28T11:56:37.233Z,3.46
2018-11-28T11:57:40.866Z,3.46
2018-11-28T11:58:43.970Z,3.54
2018-11-28T11:59:47.039Z,3.59
2018-11-28T12:00:50.535Z,3.64
2018-11-28T12:01:54.857Z,3.52
2018-11-28T12:02:56.962Z,3.58
2018-11-28T12:04:01.632Z,3.57
2018-11-28T12:05:05.319Z,3.58
2018-11-28T12:06:08.317Z,3.69
2018-11-28T12:07:12.101Z,3.56
2018-11-28T12:08:15.898Z,3.54
2018-11-28T12:09:19.726Z,3.57
2018-11-28T12:10:22.716Z,3.54
2018-11-28T12:11:25.649Z,3.56
2018-11-28T12:12:29.211Z,3.53
2018-11-28T12:13:32.848Z,3.54
2018-11-28T12:14:37.645Z,3.51
2018-11-28T12:15:42.391Z,3.44
2018-11-28T12:16:46.284Z,3.38
2018-11-28T12:17:51.633Z,3.49
2018-11-28T12:18:55.363Z,3.55
2018-11-28T12:19:58.930Z,3.61
2018-11-28T12:21:02.094Z,3.62
2018-11-28T12:22:05.381Z,3.59
2018-11-28T12:23:08.404Z,3.59
2018-11-28T12:24:11.616Z,3.52
2018-11-28T12:25:15.096Z,3.49
2018-11-28T12:26:18.378Z,3.55
2018-11-28T12:27:22.330Z,3.56
2018-11-28T12:28:26.518Z,3.50
2018-11-28T12:29:30.895Z,3.46
2018-11-28T12:30:35.283Z,3.59
2018-11-28T12:31:38.366Z,3.71
2018-11-28T12:32:42.967Z,3.61
2018-11-28T12:33:46.043Z,3.56
2018-11-28T12:34:50.470Z,3.51
2018-11-28T12:35:53.446Z,3.49
2018-11-28T12:36:57.126Z,3.53
2018-11-28T12:38:02.460Z,3.53
2018-11-28T12:39:06.114Z,3.52
2018-11-28T12:40:09.243Z,3.53
2018-11-28T12:41:13.387Z,3.59
2018-11-28T12:42:16.800Z,3.61
2018-11-28T12:43:19.908Z,3.65
2018-11-28T12:44:24.247Z,3.64
2018-11-28T12:45:28.055Z,3.51
2018-11-28T12:46:33.414Z,3.59
2018-11-28T12:47:39.058Z,3.59
2018-11-28T12:48:43.051Z,3.64
2018-11-28T12:49:47.787Z,3.57
2018-11-28T12:50:52.556Z,3.50
2018-11-28T12:51:56.143Z,3.48
2018-11-28T12:52:59.467Z,3.43
2018-11-28T12:54:02.495Z,3.49
2018-11-28T12:55:07.791Z,3.47
2018-11-28T12:56:11.726Z,3.51
2018-11-28T12:57:16.138Z,3.56
2018-11-28T12:58:20.779Z,3.54
2018-11-28T12:59:24.880Z,3.59
2018-11-28T13:00:28.192Z,3.56
2018-11-28T13:01:32.896Z,3.57
2018-11-28T13:02:35.382Z,3.56
2018-11-28T13:03:38.304Z,3.57
2018-11-28T13:04:42.046Z,3.58
2018-11-28T13:05:47.541Z,3.67
2018-11-28T13:06:51.115Z,3.60
2018-11-28T13:07:56.288Z,3.60
2018-11-28T13:08:59.876Z,3.61
2018-11-28T13:10:04.191Z,3.60
2018-11-28T13:11:07.496Z,3.68
2018-11-28T13:12:10.663Z,3.66
2018-11-28T13:13:15.725Z,3.61
2018-11-28T13:14:19.775Z,3.64
2018-11-28T13:15:27.549Z,3.66
2018-11-28T13:16:31.146Z,3.65
2018-11-28T13:17:35.243Z,3.59
2018-11-28T13:18:39.817Z,3.61
2018-11-28T13:19:48.746Z,3.58
2018-11-28T13:20:54.791Z,3.61
2018-11-28T13:21:58.779Z,3.59
2018-11-28T13:23:02.296Z,3.66
2018-11-28T13:24:11.526Z,3.70
2018-11-28T13:25:15.427Z,3.66
2018-11-28T13:26:18.976Z,3.69
2018-11-28T13:27:22.209Z,3.68
2018-11-28T13:28:25.878Z,3.67
2018-11-28T13:29:28.792Z,3.67
2018-11-28T13:30:32.353Z,3.74
2018-11-28T13:31:35.238Z,3.76
2018-11-28T13:32:38.522Z,3.73
2018-11-28T13:33:42.322Z,3.79
2018-11-28T13:34:45.291Z,3.85
2018-11-28T13:35:48.341Z,3.83
2018-11-28T13:36:53.595Z,3.87
2018-11-28T13:37:56.509Z,3.83
2018-11-28T13:39:00.484Z,3.87
2018-11-28T13:40:04.323Z,3.88
2018-11-28T13:41:08.588Z,3.86
2018-11-28T13:42:11.601Z,3.90
2018-11-28T13:43:14.573Z,3.90
2018-11-28T13:44:17.599Z,3.89
2018-11-28T13:45:21.606Z,3.90
2018-11-28T13:46:25.836Z,3.81
2018-11-28T13:47:29.459Z,3.84
2018-11-28T13:48:32.728Z,3.91
2018-11-28T13:49:36.727Z,3.94
2018-11-28T13:50:40.087Z,3.93
2018-11-28T13:51:43.417Z,3.93
2018-11-28T13:52:46.348Z,3.86
2018-11-28T13:53:49.399Z,3.87
2018-11-28T13:55:37.475Z,3.91
2018-11-28T13:56:57.472Z,3.89
2018-11-28T13:57:01.580Z,3.88
2018-11-28T13:58:02.617Z,3.89
2018-11-28T13:59:05.598Z,3.86
2018-11-28T14:00:08.746Z,3.90
2018-11-28T14:01:13.218Z,3.88
2018-11-28T14:02:16.111Z,3.90
2018-11-28T14:03:20.089Z,3.91
2018-11-28T14:04:23.130Z,3.90
2018-11-28T14:05:26.872Z,3.93
2018-11-28T14:06:29.897Z,3.95
2018-11-28T14:07:34.515Z,3.95
2018-11-28T14:08:37.505Z,3.95
2018-11-28T14:09:40.748Z,3.93
2018-11-28T14:10:43.683Z,3.93
2018-11-28T14:11:46.703Z,3.93
2018-11-28T14:12:49.756Z,3.92
2018-11-28T14:13:53.176Z,3.97
2018-11-28T14:14:57.481Z,3.98
2018-11-28T14:16:00.596Z,3.99
2018-11-28T14:17:04.422Z,3.96
2018-11-28T14:18:07.862Z,3.92
2018-11-28T14:19:14.328Z,3.92
2018-11-28T14:20:17.814Z,3.99
2018-11-28T14:21:21.202Z,3.97
2018-11-28T14:22:24.462Z,3.95
2018-11-28T14:23:27.483Z,3.96
2018-11-28T14:24:30.757Z,3.98
2018-11-28T14:25:34.155Z,3.94
2018-11-28T14:26:37.982Z,3.87
2018-11-28T14:27:41.039Z,3.87
2018-11-28T14:28:44.049Z,3.88
2018-11-28T14:29:47.892Z,3.85
2018-11-28T14:30:52.693Z,3.86
2018-11-28T14:31:57.010Z,3.85
2018-11-28T14:33:04.259Z,3.86
2018-11-28T14:34:11.668Z,3.89
2018-11-28T14:35:16.987Z,3.87
2018-11-28T14:36:19.996Z,3.90
2018-11-28T14:37:25.128Z,3.89
2018-11-28T14:38:28.923Z,3.92